Terminal Aerodrome Forecast
Issued by NWS

Home | Current Version | Previous Version | Graphics & Text | Print | Product List | Glossary On
Versions: 1 2 3 4 5 6 7 8 9 10 11 12 13 14 15 16 17 18 19 20 21 22 23 24 25 26 27
000
FTUS43 KGRB 290535 CCA
TAFRHI
TAF COR
KRHI 290535Z 2906/3006 18007KT P6SM BKN025 OVC040
     FM290700 21006KT P6SM BKN035 OVC070
      TEMPO 2907/2909 4SM -SHRA OVC025
     FM290900 27008KT P6SM SKC
     FM291300 26012G23KT P6SM SCT070
     FM291600 26018G31KT P6SM SCT100
     FM300000 25010G18KT P6SM SKC=

USA.gov is the U.S. government's official web portal to all federal, state and local government web resources and services.